sensor_id;sensor_type;location;lat;lon;timestamp;temperature;humidity
26579;DHT22;14227;47.674;19.320;2022-12-29T03:12:41;7.70;64.10
26579;DHT22;14227;47.674;19.320;2022-12-29T03:15:42;7.70;64.30
26579;DHT22;14227;47.674;19.320;2022-12-29T03:19:16;7.70;64.20
26579;DHT22;14227;47.674;19.320;2022-12-29T03:25:23;7.70;64.30
26579;DHT22;14227;47.674;19.320;2022-12-29T03:31:29;7.70;64.80
26579;DHT22;14227;47.674;19.320;2022-12-29T03:33:56;7.70;64.30
26579;DHT22;14227;47.674;19.320;2022-12-29T03:39:50;7.70;64.20
26579;DHT22;14227;47.674;19.320;2022-12-29T03:42:20;7.70;64.30
26579;DHT22;14227;47.674;19.320;2022-12-29T03:44:47;7.80;64.30
26579;DHT22;14227;47.674;19.320;2022-12-29T03:47:14;7.80;64.40
26579;DHT22;14227;47.674;19.320;2022-12-29T03:50:07;7.80;64.30
26579;DHT22;14227;47.674;19.320;2022-12-29T03:52:36;7.80;64.20
26579;DHT22;14227;47.674;19.320;2022-12-29T03:55:02;7.80;64.30
26579;DHT22;14227;47.674;19.320;2022-12-29T04:00:51;7.80;64.10
26579;DHT22;14227;47.674;19.320;2022-12-29T04:06:42;7.80;64.20
26579;DHT22;14227;47.674;19.320;2022-12-29T04:12:51;7.80;64.10
26579;DHT22;14227;47.674;19.320;2022-12-29T04:18:45;7.80;64.10
26579;DHT22;14227;47.674;19.320;2022-12-29T04:21:10;7.70;64.10
26579;DHT22;14227;47.674;19.320;2022-12-29T04:23:41;7.70;64.30
26579;DHT22;14227;47.674;19.320;2022-12-29T04:26:20;7.70;64.30
26579;DHT22;14227;47.674;19.320;2022-12-29T04:32:12;7.80;64.20
26579;DHT22;14227;47.674;19.320;2022-12-29T04:34:37;7.80;64.20
26579;DHT22;14227;47.674;19.320;2022-12-29T04:37:03;7.80;64.10
26579;DHT22;14227;47.674;19.320;2022-12-29T04:46:15;7.80;64.00
26579;DHT22;14227;47.674;19.320;2022-12-29T04:48:41;7.70;64.10
26579;DHT22;14227;47.674;19.320;2022-12-29T04:51:07;7.80;64.20
26579;DHT22;14227;47.674;19.320;2022-12-29T04:53:33;7.80;64.10
26579;DHT22;14227;47.674;19.320;2022-12-29T04:59:59;7.80;64.00
26579;DHT22;14227;47.674;19.320;2022-12-29T05:02:25;7.70;63.90
26579;DHT22;14227;47.674;19.320;2022-12-29T05:04:53;7.70;64.00
26579;DHT22;14227;47.674;19.320;2022-12-29T05:10:44;7.70;64.00
26579;DHT22;14227;47.674;19.320;2022-12-29T05:16:37;7.70;64.00
26579;DHT22;14227;47.674;19.320;2022-12-29T05:22:41;7.80;64.10
26579;DHT22;14227;47.674;19.320;2022-12-29T05:28:34;7.70;64.00
26579;DHT22;14227;47.674;19.320;2022-12-29T05:34:22;7.70;63.90
26579;DHT22;14227;47.674;19.320;2022-12-29T05:40:10;7.70;63.90
26579;DHT22;14227;47.674;19.320;2022-12-29T05:43:06;7.70;63.90
26579;DHT22;14227;47.674;19.320;2022-12-29T05:45:32;7.70;63.90
26579;DHT22;14227;47.674;19.320;2022-12-29T05:47:58;7.70;64.00
26579;DHT22;14227;47.674;19.320;2022-12-29T05:50:24;7.70;64.00
26579;DHT22;14227;47.674;19.320;2022-12-29T06:55:21;7.50;64.10
26579;DHT22;14227;47.674;19.320;2022-12-29T06:57:47;7.40;64.10
26579;DHT22;14227;47.674;19.320;2022-12-29T07:06:51;7.60;64.20
26579;DHT22;14227;47.674;19.320;2022-12-29T07:23:10;7.60;64.10
26579;DHT22;14227;47.674;19.320;2022-12-29T07:29:08;7.60;64.10
26579;DHT22;14227;47.674;19.320;2022-12-29T07:35:16;7.60;64.10
26579;DHT22;14227;47.674;19.320;2022-12-29T07:41:18;7.60;64.00
26579;DHT22;14227;47.674;19.320;2022-12-29T07:47:15;7.60;63.90
26579;DHT22;14227;47.674;19.320;2022-12-29T07:49:40;7.60;64.00
26579;DHT22;14227;47.674;19.320;2022-12-29T07:52:06;7.60;64.10
26579;DHT22;14227;47.674;19.320;2022-12-29T07:57:55;7.60;64.00
26579;DHT22;14227;47.674;19.320;2022-12-29T08:00:22;7.60;64.00
26579;DHT22;14227;47.674;19.320;2022-12-29T08:02:50;7.60;64.10
26579;DHT22;14227;47.674;19.320;2022-12-29T08:05:16;7.60;64.00
26579;DHT22;14227;47.674;19.320;2022-12-29T08:11:09;7.60;63.90
26579;DHT22;14227;47.674;19.320;2022-12-29T08:16:57;7.60;63.90
26579;DHT22;14227;47.674;19.320;2022-12-29T19:40:47;7.60;66.60
26579;DHT22;14227;47.674;19.320;2022-12-29T19:44:00;7.60;66.60
26579;DHT22;14227;47.674;19.320;2022-12-29T19:50:11;7.60;66.50
26579;DHT22;14227;47.674;19.320;2022-12-29T19:56:09;7.70;66.40
26579;DHT22;14227;47.674;19.320;2022-12-29T19:59:11;7.70;66.50
26579;DHT22;14227;47.674;19.320;2022-12-29T20:01:57;7.60;66.40
26579;DHT22;14227;47.674;19.320;2022-12-29T20:04:30;7.60;66.40
26579;DHT22;14227;47.674;19.320;2022-12-29T20:10:38;7.60;66.40
26579;DHT22;14227;47.674;19.320;2022-12-29T20:13:18;7.70;66.50
26579;DHT22;14227;47.674;19.320;2022-12-29T20:16:08;7.70;66.60
26579;DHT22;14227;47.674;19.320;2022-12-29T20:19:08;7.70;66.50
26579;DHT22;14227;47.674;19.320;2022-12-29T20:21:33;7.60;66.40
26579;DHT22;14227;47.674;19.320;2022-12-29T20:27:10;7.70;66.30
26579;DHT22;14227;47.674;19.320;2022-12-29T20:29:45;7.70;66.50
26579;DHT22;14227;47.674;19.320;2022-12-29T20:32:21;7.70;66.40
26579;DHT22;14227;47.674;19.320;2022-12-29T20:35:25;7.70;66.50
26579;DHT22;14227;47.674;19.320;2022-12-29T20:38:01;7.70;66.40
26579;DHT22;14227;47.674;19.320;2022-12-29T20:40:39;7.70;66.50
26579;DHT22;14227;47.674;19.320;2022-12-29T20:43:13;7.70;66.50
26579;DHT22;14227;47.674;19.320;2022-12-29T20:45:50;7.70;66.50
26579;DHT22;14227;47.674;19.320;2022-12-29T20:48:21;7.70;66.50
26579;DHT22;14227;47.674;19.320;2022-12-29T20:51:00;7.70;66.50
26579;DHT22;14227;47.674;19.320;2022-12-29T20:53:40;7.70;66.40
26579;DHT22;14227;47.674;19.320;2022-12-29T20:56:15;7.70;66.40
26579;DHT22;14227;47.674;19.320;2022-12-29T20:58:47;7.70;66.40
26579;DHT22;14227;47.674;19.320;2022-12-29T21:01:23;7.70;66.50
26579;DHT22;14227;47.674;19.320;2022-12-29T21:04:12;7.70;66.50
26579;DHT22;14227;47.674;19.320;2022-12-29T21:06:38;7.70;66.50
26579;DHT22;14227;47.674;19.320;2022-12-29T21:09:06;7.70;66.50
26579;DHT22;14227;47.674;19.320;2022-12-29T21:11:34;7.70;66.60
26579;DHT22;14227;47.674;19.320;2022-12-29T21:14:02;7.70;66.60
26579;DHT22;14227;47.674;19.320;2022-12-29T21:16:40;7.70;66.60
26579;DHT22;14227;47.674;19.320;2022-12-29T21:19:10;7.70;66.60
26579;DHT22;14227;47.674;19.320;2022-12-29T21:21:47;7.70;66.60
26579;DHT22;14227;47.674;19.320;2022-12-29T21:24:15;7.70;66.50
26579;DHT22;14227;47.674;19.320;2022-12-29T21:26:56;7.70;66.50
26579;DHT22;14227;47.674;19.320;2022-12-29T21:29:27;7.70;66.60
26579;DHT22;14227;47.674;19.320;2022-12-29T21:32:00;7.70;66.60
26579;DHT22;14227;47.674;19.320;2022-12-29T21:34:28;7.70;66.50
26579;DHT22;14227;47.674;19.320;2022-12-29T21:36:54;7.70;66.60
26579;DHT22;14227;47.674;19.320;2022-12-29T21:39:40;7.70;66.70
26579;DHT22;14227;47.674;19.320;2022-12-29T21:42:06;7.70;66.70
26579;DHT22;14227;47.674;19.320;2022-12-29T21:44:39;7.70;66.70
26579;DHT22;14227;47.674;19.320;2022-12-29T21:50:36;7.60;66.40
26579;DHT22;14227;47.674;19.320;2022-12-29T21:53:22;7.60;66.40
26579;DHT22;14227;47.674;19.320;2022-12-29T21:56:00;7.60;66.40
26579;DHT22;14227;47.674;19.320;2022-12-29T21:58:30;7.60;66.40
26579;DHT22;14227;47.674;19.320;2022-12-29T22:01:15;7.60;66.30
26579;DHT22;14227;47.674;19.320;2022-12-29T22:03:59;7.60;66.30
26579;DHT22;14227;47.674;19.320;2022-12-29T22:06:44;7.60;66.20
26579;DHT22;14227;47.674;19.320;2022-12-29T22:09:28;7.60;66.10
26579;DHT22;14227;47.674;19.320;2022-12-29T22:12:22;7.60;66.20
26579;DHT22;14227;47.674;19.320;2022-12-29T22:15:18;7.50;66.10
26579;DHT22;14227;47.674;19.320;2022-12-29T22:17:51;7.60;66.30
26579;DHT22;14227;47.674;19.320;2022-12-29T22:20:23;7.60;66.10
26579;DHT22;14227;47.674;19.320;2022-12-29T22:22:53;7.60;66.10
26579;DHT22;14227;47.674;19.320;2022-12-29T22:25:29;7.60;66.10
26579;DHT22;14227;47.674;19.320;2022-12-29T22:28:02;7.50;66.00
26579;DHT22;14227;47.674;19.320;2022-12-29T22:30:30;7.60;66.00
26579;DHT22;14227;47.674;19.320;2022-12-29T22:32:59;7.60;65.90
26579;DHT22;14227;47.674;19.320;2022-12-29T22:35:47;7.60;66.00
26579;DHT22;14227;47.674;19.320;2022-12-29T22:38:23;7.60;66.10
26579;DHT22;14227;47.674;19.320;2022-12-29T22:41:11;7.60;66.10
26579;DHT22;14227;47.674;19.320;2022-12-29T22:43:49;7.60;65.90
26579;DHT22;14227;47.674;19.320;2022-12-29T22:46:25;7.60;66.10
26579;DHT22;14227;47.674;19.320;2022-12-29T22:48:51;7.60;66.00
26579;DHT22;14227;47.674;19.320;2022-12-29T22:51:24;7.60;66.00
26579;DHT22;14227;47.674;19.320;2022-12-29T22:53:56;7.50;65.90
26579;DHT22;14227;47.674;19.320;2022-12-29T22:56:22;7.60;65.90
26579;DHT22;14227;47.674;19.320;2022-12-29T22:58:59;7.50;65.90
26579;DHT22;14227;47.674;19.320;2022-12-29T23:01:25;7.60;65.90
26579;DHT22;14227;47.674;19.320;2022-12-29T23:03:51;7.60;65.90
26579;DHT22;14227;47.674;19.320;2022-12-29T23:06:18;7.60;65.90
26579;DHT22;14227;47.674;19.320;2022-12-29T23:08:44;7.60;66.10
26579;DHT22;14227;47.674;19.320;2022-12-29T23:11:35;7.50;66.00
26579;DHT22;14227;47.674;19.320;2022-12-29T23:14:03;7.60;65.90
26579;DHT22;14227;47.674;19.320;2022-12-29T23:16:40;7.50;66.00
26579;DHT22;14227;47.674;19.320;2022-12-29T23:19:13;7.60;66.10
26579;DHT22;14227;47.674;19.320;2022-12-29T23:21:48;7.60;66.10
26579;DHT22;14227;47.674;19.320;2022-12-29T23:24:21;7.60;66.10
26579;DHT22;14227;47.674;19.320;2022-12-29T23:26:49;7.60;66.00
26579;DHT22;14227;47.674;19.320;2022-12-29T23:29:22;7.50;65.90
26579;DHT22;14227;47.674;19.320;2022-12-29T23:31:51;7.60;65.90
26579;DHT22;14227;47.674;19.320;2022-12-29T23:34:19;7.60;65.80
26579;DHT22;14227;47.674;19.320;2022-12-29T23:36:48;7.50;65.80
26579;DHT22;14227;47.674;19.320;2022-12-29T23:39:20;7.60;65.90
26579;DHT22;14227;47.674;19.320;2022-12-29T23:41:53;7.50;65.80
26579;DHT22;14227;47.674;19.320;2022-12-29T23:44:22;7.50;65.80
26579;DHT22;14227;47.674;19.320;2022-12-29T23:47:07;7.60;65.90
26579;DHT22;14227;47.674;19.320;2022-12-29T23:49:36;7.50;65.90
26579;DHT22;14227;47.674;19.320;2022-12-29T23:52:02;7.60;65.90
26579;DHT22;14227;47.674;19.320;2022-12-29T23:54:36;7.50;65.80
26579;DHT22;14227;47.674;19.320;2022-12-29T23:57:10;7.50;65.80
26579;DHT22;14227;47.674;19.320;2022-12-29T23:59:46;7.60;65.90
